Farmington, NM (87401)

9:49 AM MST on February 10, 2016 (GMT -0700)
Butler and 23rd Street | | Change Station
CLOSE
Current Station
Personal Weather Station
Location: Farmington, NM
Elevation: 5500 ft
Nearby Weather Stations

Elev 5500 ft 36.75 °N, 108.20 °W | Updated 4 seconds ago

Clear
Clear
37.0 °F
Feels Like 34 °F
N
4.0
Wind Variable Wind from ESE
Gusts 9.0 mph

Today
High -- | Low -- °F
--% Chance of Precip.
Yesterday
High -- | Low -- °F
Precip. -- in
Pressure 30.54 in
Visibility 10.0 miles
Clouds Clear
Windchill 34 °F
Dew Point 23 °F
Humidity 57%
Rainfall 0.00 in
Snow Depth Not available.
7:06 AM 5:47 PM
Waxing Crescent, 6% visible
METAR KFMN 101553Z 10007KT 10SM CLR M01/M06 A3047 RMK AO2 SLP340 T10061056
Pressure 30.54 in
Visibility 10.0 miles
Clouds Clear
Windchill 34 °F
Dew Point 23 °F
Humidity 57%
Rainfall 0.00 in
Snow Depth Not available.
7:06 AM 5:47 PM
Waxing Crescent, 6% visible
METAR KFMN 101553Z 10007KT 10SM CLR M01/M06 A3047 RMK AO2 SLP340 T10061056

10-Day Weather Forecast

Almanac

Astronomy

Feb. 10, 2016 Rise Set
Actual Time
Civil Twilight
Nautical Twilight
Astronomical Twilight
Moon
Length of Visible Light
Length of Day
Tomorrow will be .
, % of the Moon is Illuminated

Today's Extremes

State Highs State Lows

Community

WunderPhotos

Upload Photos

1,891,891 photos uploaded!

WunderBlog® & News

Nearby

Air Quality

  Air Quality AQ Index Pollutant
Not available.

Snow Depth

Station Depth Elevation

Earthquake Activity

City Distance Mag. Time & Date
Minimum magnitude displayed is 2.5.

Coastal Water Temperatures

Place Temperature

Stations

Nearby Weather Stations

Station Location Temp. Windchill Dew Point Humidity Wind Precip. Elev Updated Type
                   

Watches & Warnings

There are currently no watches in effect.